^^
Dati Storici Stazione
 
Giornaliero Riassunto Settembre 28, 2021 Unita' di misura:  Metriche    Inglesi   Entrambe
Giornaliero Settimanale Mensile Annuale
  Attuale: Max: Min: Media:
Temperatura: 19.7 °C 21.3 °C 19.7 °C 20.6 °C
Punto di Rugiada: 18.2 °C 19.1 °C 15.5 °C 18.4 °C
Umidita': 91% 91% 71.6% 87%
Velocita' Vento: 3.9km/h 7.6km/h 1km/h 4km/h
Raffica di Vento: 9.7km/h 19.3km/h - -
Direzione VentoNE - - ESE
Pressione: 1015.8 hPa 1016.1 hPa 1015.5 hPa -
Precipitazioni: 0 mm      
 
 
Tabelle Dati per il Settembre 28, 2021
Ora Temperatura Punto Rugiada Pressione Dir.Vento Vel.Vento Raff.Vento Umidita' Rainfall Rate (Orario) Solare Condizioni
00:04 20.8 °C 15.5 °C 1015.5 hPa West 2.7 km/h 6.4 km/h 71.6% 0 mm W/m2
00:09 20.9 °C 15.7 °C 1015.8 hPa West 1.4 km/h 6.4 km/h 71.7% 0 mm W/m2
00:14 21.1 °C 15.8 °C 1015.5 hPa NW 2.3 km/h 5.6 km/h 71.9% 0 mm W/m2
00:19 21.2 °C 16.2 °C 1015.8 hPa NNW 3.7 km/h 9.7 km/h 72.9% 0 mm W/m2
00:24 21.3 °C 16.3 °C 1015.8 hPa NNW 5.3 km/h 11.3 km/h 73% 0 mm W/m2
00:29 21.3 °C 16.3 °C 1015.8 hPa NNW 6.6 km/h 11.3 km/h 73% 0 mm W/m2
00:34 21.3 °C 16.4 °C 1015.8 hPa NNW 5.6 km/h 13 km/h 74.1% 0 mm W/m2
00:39 21.2 °C 16.6 °C 1015.8 hPa NW 5.8 km/h 13 km/h 75.1% 0 mm W/m2
00:44 21.2 °C 17.1 °C 1015.8 hPa NNW 6.8 km/h 14.8 km/h 77.6% 0 mm W/m2
00:49 21.2 °C 17.7 °C 1015.8 hPa NNW 7.6 km/h 16.7 km/h 80.6% 0 mm W/m2
00:54 21.2 °C 18 °C 1015.8 hPa NNW 4.8 km/h 16.1 km/h 82.2% 0 mm W/m2
00:59 21.1 °C 18.2 °C 1015.8 hPa NNW 7.4 km/h 18.5 km/h 83.5% 0 mm W/m2
01:04 21.1 °C 18.2 °C 1015.8 hPa North 6.3 km/h 19.3 km/h 84.1% 0 mm W/m2
01:09 21 °C 18.4 °C 1015.8 hPa NNE 6.1 km/h 13 km/h 85% 0 mm W/m2
01:14 21 °C 18.4 °C 1015.8 hPa North 4.5 km/h 14.8 km/h 85% 0 mm W/m2
01:19 21.1 °C 18.6 °C 1015.8 hPa NNW 5.3 km/h 14.5 km/h 86% 0 mm W/m2
01:24 21.1 °C 18.6 °C 1015.8 hPa North 5.3 km/h 13 km/h 86% 0 mm W/m2
01:29 21.1 °C 18.7 °C 1015.8 hPa NNW 6.9 km/h 16.7 km/h 86.1% 0 mm W/m2
01:34 21.1 °C 18.8 °C 1016.1 hPa North 5.6 km/h 16.7 km/h 87% 0 mm W/m2
01:39 21.1 °C 18.8 °C 1016.1 hPa NNW 5.6 km/h 12.9 km/h 87% 0 mm W/m2
01:44 21.1 °C 18.8 °C 1016.1 hPa NNW 5.5 km/h 14.8 km/h 87% 0 mm W/m2
01:49 21.1 °C 18.8 °C 1016.1 hPa North 4.8 km/h 14.5 km/h 87% 0 mm W/m2
01:54 21.1 °C 18.8 °C 1016.1 hPa NNE 5.5 km/h 14.8 km/h 87% 0 mm W/m2
01:59 21.1 °C 18.8 °C 1016.1 hPa NNE 4.8 km/h 16.1 km/h 87% 0 mm W/m2
02:04 21.1 °C 18.9 °C 1016.1 hPa NNE 4.2 km/h 16.7 km/h 87.2% 0 mm W/m2
02:09 21.1 °C 19 °C 1016.1 hPa NNE 5.3 km/h 16.7 km/h 88% 0 mm W/m2
02:14 21 °C 18.9 °C 1016.1 hPa NNE 5 km/h 16.1 km/h 88% 0 mm W/m2
02:19 21 °C 18.9 °C 1016.1 hPa NNE 5.3 km/h 14.8 km/h 88% 0 mm W/m2
02:24 21 °C 18.9 °C 1016.1 hPa North 4.8 km/h 14.5 km/h 88% 0 mm W/m2
02:29 21 °C 18.9 °C 1016.1 hPa NNE 3.4 km/h 11.3 km/h 88% 0 mm W/m2
02:34 20.9 °C 18.9 °C 1016.1 hPa NNE 2.9 km/h 11.3 km/h 88% 0 mm W/m2
02:39 20.9 °C 18.9 °C 1016.1 hPa North 3.9 km/h 13 km/h 88% 0 mm W/m2
02:44 20.9 °C 18.9 °C 1016.1 hPa North 3.7 km/h 12.9 km/h 88% 0 mm W/m2
02:49 20.9 °C 18.9 °C 1016.1 hPa NNE 4.5 km/h 11.3 km/h 88% 0 mm W/m2
02:54 20.9 °C 18.9 °C 1016.1 hPa North 3.4 km/h 11.3 km/h 88% 0 mm W/m2
02:59 20.9 °C 18.9 °C 1015.8 hPa NNE 2.7 km/h 8 km/h 88.3% 0 mm W/m2
03:04 20.9 °C 19.1 °C 1015.8 hPa NNE 2.7 km/h 11.3 km/h 89% 0 mm W/m2
03:09 20.9 °C 19.1 °C 1015.8 hPa North 2.4 km/h 11.3 km/h 89% 0 mm W/m2
03:14 20.9 °C 19.1 °C 1016.1 hPa NNE 2.6 km/h 9.7 km/h 89% 0 mm W/m2
03:19 21 °C 19.1 °C 1015.8 hPa NNE 1.8 km/h 9.7 km/h 89% 0 mm W/m2
03:24 21 °C 19.1 °C 1015.8 hPa NNE 4.2 km/h 13 km/h 89% 0 mm W/m2
03:29 20.9 °C 19.1 °C 1015.8 hPa NE 3.2 km/h 12.9 km/h 89% 0 mm W/m2
03:34 20.9 °C 19.1 °C 1015.8 hPa NE 4.2 km/h 13 km/h 89% 0 mm W/m2
03:39 20.9 °C 19 °C 1015.8 hPa NE 3.5 km/h 12.9 km/h 89% 0 mm W/m2
03:44 20.8 °C 18.9 °C 1015.8 hPa NE 3.7 km/h 9.7 km/h 89% 0 mm W/m2
03:49 20.8 °C 18.9 °C 1015.8 hPa NNE 2.9 km/h 9.7 km/h 89% 0 mm W/m2
03:54 20.8 °C 18.9 °C 1015.8 hPa NE 3.2 km/h 8 km/h 89% 0 mm W/m2
03:59 20.7 °C 18.8 °C 1015.8 hPa NE 3.7 km/h 9.7 km/h 89% 0 mm W/m2
04:04 20.7 °C 18.8 °C 1015.8 hPa NNE 4 km/h 11.3 km/h 89% 0 mm W/m2
04:09 20.6 °C 18.7 °C 1015.5 hPa NNE 3.1 km/h 11.3 km/h 89% 0 mm W/m2
04:14 20.6 °C 18.7 °C 1015.5 hPa NNE 3.1 km/h 8 km/h 89.5% 0 mm W/m2
04:19 20.5 °C 18.8 °C 1015.5 hPa NE 3.4 km/h 8 km/h 90% 0 mm W/m2
04:24 20.4 °C 18.7 °C 1015.5 hPa NE 2.7 km/h 6.4 km/h 90% 0 mm W/m2
04:29 20.4 °C 18.7 °C 1015.5 hPa NE 2.7 km/h 6.4 km/h 90% 0 mm W/m2
04:34 20.3 °C 18.6 °C 1015.5 hPa NNE 3.5 km/h 11.3 km/h 90% 0 mm W/m2
04:39 20.3 °C 18.6 °C 1015.5 hPa NNE 3.9 km/h 11.3 km/h 90% 0 mm W/m2
04:44 20.3 °C 18.6 °C 1015.5 hPa NE 3.5 km/h 9.7 km/h 90% 0 mm W/m2
04:49 20.3 °C 18.6 °C 1015.5 hPa NE 3.4 km/h 9.7 km/h 90% 0 mm W/m2
04:54 20.3 °C 18.6 °C 1015.5 hPa NE 3.5 km/h 8 km/h 90% 0 mm W/m2
04:59 20.2 °C 18.6 °C 1015.5 hPa NE 3.1 km/h 8 km/h 90% 0 mm W/m2
05:04 20.2 °C 18.6 °C 1015.5 hPa NE 4.3 km/h 8 km/h 90% 0 mm W/m2
05:09 20.2 °C 18.6 °C 1015.5 hPa NE 3.7 km/h 9.7 km/h 90% 0 mm W/m2
05:14 20.2 °C 18.6 °C 1015.5 hPa NNE 3.4 km/h 9.7 km/h 90% 0 mm W/m2
05:19 20.2 °C 18.6 °C 1015.5 hPa NNE 2.9 km/h 9.7 km/h 90% 0 mm W/m2
05:24 20.2 °C 18.6 °C 1015.5 hPa NE 4.2 km/h 9.7 km/h 90.4% 0 mm W/m2
05:29 20.2 °C 18.7 °C 1015.5 hPa NE 4 km/h 13 km/h 91% 0 mm W/m2
05:34 20.2 °C 18.7 °C 1015.5 hPa NE 3.5 km/h 12.9 km/h 91% 0 mm W/m2
05:39 20.2 °C 18.7 °C 1015.5 hPa NE 4.5 km/h 11.3 km/h 91% 0 mm W/m2
05:44 20.1 °C 18.6 °C 1015.5 hPa NE 4 km/h 11.3 km/h 91% 0 mm W/m2
05:49 20.1 °C 18.6 °C 1015.5 hPa NE 4.2 km/h 9.7 km/h 91% 0 mm W/m2
05:54 20.1 °C 18.6 °C 1015.5 hPa NE 3.5 km/h 9.7 km/h 91% 0 mm W/m2
05:59 20 °C 18.5 °C 1015.5 hPa NNE 4 km/h 9.7 km/h 91% 0 mm W/m2
06:04 19.9 °C 18.4 °C 1015.5 hPa NE 3.4 km/h 9.7 km/h 91% 0 mm W/m2
06:09 19.9 °C 18.4 °C 1015.5 hPa NE 3.2 km/h 8 km/h 91% 0 mm W/m2
06:14 19.9 °C 18.4 °C 1015.5 hPa NE 2.4 km/h 8 km/h 91% 0 mm W/m2
06:19 19.8 °C 18.3 °C 1015.5 hPa NE 2.1 km/h 6.4 km/h 91% 0 mm W/m2
06:24 19.8 °C 18.3 °C 1015.8 hPa NNE 1 km/h 6.4 km/h 91% 0 mm W/m2
06:29 19.8 °C 18.3 °C 1015.8 hPa NNE 1.8 km/h 6.4 km/h 91% 0 mm W/m2
06:34 19.8 °C 18.3 °C 1015.8 hPa NNE 2.3 km/h 6.4 km/h 91% 0 mm W/m2
06:39 19.7 °C 18.2 °C 1015.5 hPa NE 2.4 km/h 6.4 km/h 91% 0 mm W/m2
06:44 19.7 °C 18.2 °C 1015.5 hPa NE 2.6 km/h 6.4 km/h 91% 0 mm W/m2
06:49 19.7 °C 18.2 °C 1015.8 hPa NE 3.2 km/h 6.4 km/h 91% 0 mm W/m2
06:54 19.7 °C 18.2 °C 1015.8 hPa NE 3.4 km/h 9.7 km/h 91% 0 mm W/m2
06:59 19.7 °C 18.2 °C 1015.8 hPa NE 4 km/h 9.7 km/h 91% 0 mm W/m2
07:04 19.7 °C 18.2 °C 1015.8 hPa NE 3.9 km/h 9.7 km/h 91% 0 mm W/m2
Acquaviva delle Fonti, BA, Italia
Complimenti a Weather Underground - 2.25 mb